sensor_id;sensor_type;location;lat;lon;timestamp;temperature;humidity
52867;DHT22;38739;53.324;6.862;2022-08-19T00:01:21;15.20;99.90
52867;DHT22;38739;53.324;6.862;2022-08-19T00:03:48;15.10;99.90
52867;DHT22;38739;53.324;6.862;2022-08-19T00:06:14;15.10;99.90
52867;DHT22;38739;53.324;6.862;2022-08-19T00:08:40;15.10;99.90
52867;DHT22;38739;53.324;6.862;2022-08-19T00:11:05;15.10;99.90
52867;DHT22;38739;53.324;6.862;2022-08-19T00:13:31;15.10;99.90
52867;DHT22;38739;53.324;6.862;2022-08-19T00:15:57;15.10;99.90
52867;DHT22;38739;53.324;6.862;2022-08-19T00:18:24;15.00;99.90
52867;DHT22;38739;53.324;6.862;2022-08-19T00:20:51;15.00;99.90
52867;DHT22;38739;53.324;6.862;2022-08-19T00:23:17;15.00;99.90
52867;DHT22;38739;53.324;6.862;2022-08-19T00:25:42;15.00;99.90
52867;DHT22;38739;53.324;6.862;2022-08-19T00:28:08;14.90;99.90
52867;DHT22;38739;53.324;6.862;2022-08-19T00:30:34;14.90;99.90
52867;DHT22;38739;53.324;6.862;2022-08-19T00:33:00;14.90;99.90
52867;DHT22;38739;53.324;6.862;2022-08-19T00:35:25;14.90;99.90
52867;DHT22;38739;53.324;6.862;2022-08-19T00:37:53;14.90;99.90
52867;DHT22;38739;53.324;6.862;2022-08-19T00:40:19;14.80;99.90
52867;DHT22;38739;53.324;6.862;2022-08-19T00:42:45;14.80;99.90
52867;DHT22;38739;53.324;6.862;2022-08-19T00:45:16;14.80;99.90
52867;DHT22;38739;53.324;6.862;2022-08-19T00:47:43;14.80;99.90
52867;DHT22;38739;53.324;6.862;2022-08-19T00:50:11;14.70;99.90
52867;DHT22;38739;53.324;6.862;2022-08-19T00:52:43;14.70;99.90
52867;DHT22;38739;53.324;6.862;2022-08-19T00:55:16;14.70;99.90
52867;DHT22;38739;53.324;6.862;2022-08-19T00:57:48;14.70;99.90
52867;DHT22;38739;53.324;6.862;2022-08-19T01:00:18;14.70;99.90
52867;DHT22;38739;53.324;6.862;2022-08-19T01:02:44;14.70;99.90
52867;DHT22;38739;53.324;6.862;2022-08-19T01:05:17;14.60;99.90
52867;DHT22;38739;53.324;6.862;2022-08-19T01:07:44;14.60;99.90
52867;DHT22;38739;53.324;6.862;2022-08-19T01:10:14;14.50;99.90
52867;DHT22;38739;53.324;6.862;2022-08-19T01:12:40;14.50;99.90
52867;DHT22;38739;53.324;6.862;2022-08-19T01:15:09;14.50;99.90
52867;DHT22;38739;53.324;6.862;2022-08-19T01:17:36;14.50;99.90
52867;DHT22;38739;53.324;6.862;2022-08-19T01:20:04;14.50;99.90
52867;DHT22;38739;53.324;6.862;2022-08-19T01:22:41;14.50;99.90
52867;DHT22;38739;53.324;6.862;2022-08-19T01:25:08;14.50;99.90
52867;DHT22;38739;53.324;6.862;2022-08-19T01:27:44;14.40;99.90
52867;DHT22;38739;53.324;6.862;2022-08-19T01:30:15;14.40;99.90
52867;DHT22;38739;53.324;6.862;2022-08-19T01:32:41;14.40;99.90
52867;DHT22;38739;53.324;6.862;2022-08-19T01:35:09;14.40;99.90
52867;DHT22;38739;53.324;6.862;2022-08-19T01:38:03;14.40;99.90
52867;DHT22;38739;53.324;6.862;2022-08-19T01:40:35;14.40;99.90
52867;DHT22;38739;53.324;6.862;2022-08-19T01:43:02;14.40;99.90
52867;DHT22;38739;53.324;6.862;2022-08-19T01:45:30;14.40;99.90
52867;DHT22;38739;53.324;6.862;2022-08-19T01:47:56;14.40;99.90
52867;DHT22;38739;53.324;6.862;2022-08-19T01:50:22;14.40;99.90
52867;DHT22;38739;53.324;6.862;2022-08-19T01:52:48;14.40;99.90
52867;DHT22;38739;53.324;6.862;2022-08-19T01:55:17;14.40;99.90
52867;DHT22;38739;53.324;6.862;2022-08-19T01:57:47;14.40;99.90
52867;DHT22;38739;53.324;6.862;2022-08-19T02:00:17;14.40;99.90
52867;DHT22;38739;53.324;6.862;2022-08-19T02:02:43;14.40;99.90
52867;DHT22;38739;53.324;6.862;2022-08-19T02:05:09;14.40;99.90
52867;DHT22;38739;53.324;6.862;2022-08-19T02:07:36;14.40;99.90
52867;DHT22;38739;53.324;6.862;2022-08-19T02:10:07;14.40;99.90
52867;DHT22;38739;53.324;6.862;2022-08-19T02:12:33;14.40;99.90
52867;DHT22;38739;53.324;6.862;2022-08-19T02:14:59;14.40;99.90
52867;DHT22;38739;53.324;6.862;2022-08-19T02:17:26;14.40;99.90
52867;DHT22;38739;53.324;6.862;2022-08-19T02:19:54;14.40;99.90
52867;DHT22;38739;53.324;6.862;2022-08-19T02:22:20;14.40;99.90
52867;DHT22;38739;53.324;6.862;2022-08-19T02:24:46;14.40;99.90
52867;DHT22;38739;53.324;6.862;2022-08-19T02:27:13;14.40;99.90
52867;DHT22;38739;53.324;6.862;2022-08-19T02:29:39;14.40;99.90
52867;DHT22;38739;53.324;6.862;2022-08-19T02:32:07;14.40;99.90
52867;DHT22;38739;53.324;6.862;2022-08-19T02:34:33;14.40;99.90
52867;DHT22;38739;53.324;6.862;2022-08-19T02:36:59;14.40;99.90
52867;DHT22;38739;53.324;6.862;2022-08-19T02:39:25;14.40;99.90
52867;DHT22;38739;53.324;6.862;2022-08-19T02:41:52;14.40;99.90
52867;DHT22;38739;53.324;6.862;2022-08-19T02:44:18;14.40;99.90
52867;DHT22;38739;53.324;6.862;2022-08-19T02:46:46;14.40;99.90
52867;DHT22;38739;53.324;6.862;2022-08-19T02:49:12;14.40;99.90
52867;DHT22;38739;53.324;6.862;2022-08-19T02:51:41;14.40;99.90
52867;DHT22;38739;53.324;6.862;2022-08-19T02:54:09;14.40;99.90
52867;DHT22;38739;53.324;6.862;2022-08-19T02:56:36;14.40;99.90
52867;DHT22;38739;53.324;6.862;2022-08-19T02:59:03;14.40;99.90
52867;DHT22;38739;53.324;6.862;2022-08-19T03:01:34;14.30;99.90
52867;DHT22;38739;53.324;6.862;2022-08-19T03:04:03;14.40;99.90
52867;DHT22;38739;53.324;6.862;2022-08-19T03:06:29;14.30;99.90
52867;DHT22;38739;53.324;6.862;2022-08-19T03:08:55;14.30;99.90
52867;DHT22;38739;53.324;6.862;2022-08-19T03:11:25;14.30;99.90
52867;DHT22;38739;53.324;6.862;2022-08-19T03:13:52;14.30;99.90
52867;DHT22;38739;53.324;6.862;2022-08-19T03:16:20;14.30;99.90
52867;DHT22;38739;53.324;6.862;2022-08-19T03:18:46;14.30;99.90
52867;DHT22;38739;53.324;6.862;2022-08-19T03:21:22;14.30;99.90
52867;DHT22;38739;53.324;6.862;2022-08-19T03:23:49;14.30;99.90
52867;DHT22;38739;53.324;6.862;2022-08-19T03:26:16;14.30;99.90
52867;DHT22;38739;53.324;6.862;2022-08-19T03:28:43;14.20;99.90
52867;DHT22;38739;53.324;6.862;2022-08-19T03:31:13;14.30;99.90
52867;DHT22;38739;53.324;6.862;2022-08-19T03:33:42;14.20;99.90
52867;DHT22;38739;53.324;6.862;2022-08-19T03:36:15;14.20;99.90
52867;DHT22;38739;53.324;6.862;2022-08-19T03:38:43;14.20;99.90
52867;DHT22;38739;53.324;6.862;2022-08-19T03:41:13;14.20;99.90
52867;DHT22;38739;53.324;6.862;2022-08-19T03:43:40;14.20;99.90
52867;DHT22;38739;53.324;6.862;2022-08-19T03:46:11;14.10;99.90
52867;DHT22;38739;53.324;6.862;2022-08-19T03:48:38;14.10;99.90
52867;DHT22;38739;53.324;6.862;2022-08-19T03:51:05;14.10;99.90
52867;DHT22;38739;53.324;6.862;2022-08-19T03:53:33;14.00;99.90
52867;DHT22;38739;53.324;6.862;2022-08-19T03:55:59;14.00;99.90
52867;DHT22;38739;53.324;6.862;2022-08-19T03:58:27;14.00;99.90
52867;DHT22;38739;53.324;6.862;2022-08-19T04:00:57;14.00;99.90
52867;DHT22;38739;53.324;6.862;2022-08-19T04:03:24;13.90;99.90
52867;DHT22;38739;53.324;6.862;2022-08-19T04:05:52;13.90;99.90
52867;DHT22;38739;53.324;6.862;2022-08-19T04:08:19;13.90;99.90
52867;DHT22;38739;53.324;6.862;2022-08-19T04:10:48;13.90;99.90
52867;DHT22;38739;53.324;6.862;2022-08-19T04:13:16;13.90;99.90
52867;DHT22;38739;53.324;6.862;2022-08-19T04:15:44;13.90;99.90
52867;DHT22;38739;53.324;6.862;2022-08-19T04:18:10;13.90;99.90
52867;DHT22;38739;53.324;6.862;2022-08-19T04:20:45;13.80;99.90
52867;DHT22;38739;53.324;6.862;2022-08-19T04:23:12;13.80;99.90
52867;DHT22;38739;53.324;6.862;2022-08-19T04:25:41;13.80;99.90
52867;DHT22;38739;53.324;6.862;2022-08-19T04:28:09;13.80;99.90
52867;DHT22;38739;53.324;6.862;2022-08-19T04:30:48;13.70;99.90
52867;DHT22;38739;53.324;6.862;2022-08-19T04:33:16;13.80;99.90
52867;DHT22;38739;53.324;6.862;2022-08-19T04:35:45;13.70;99.90
52867;DHT22;38739;53.324;6.862;2022-08-19T04:38:11;13.80;99.90
52867;DHT22;38739;53.324;6.862;2022-08-19T04:40:42;13.70;99.90
52867;DHT22;38739;53.324;6.862;2022-08-19T04:43:26;13.80;99.90
52867;DHT22;38739;53.324;6.862;2022-08-19T04:45:53;13.80;99.90
52867;DHT22;38739;53.324;6.862;2022-08-19T04:48:19;13.80;99.90
52867;DHT22;38739;53.324;6.862;2022-08-19T04:50:51;13.80;99.90
52867;DHT22;38739;53.324;6.862;2022-08-19T04:53:22;13.80;99.90
52867;DHT22;38739;53.324;6.862;2022-08-19T04:55:48;13.80;99.90
52867;DHT22;38739;53.324;6.862;2022-08-19T04:58:13;13.90;99.90
52867;DHT22;38739;53.324;6.862;2022-08-19T05:00:39;13.90;99.90
52867;DHT22;38739;53.324;6.862;2022-08-19T05:03:05;14.00;99.90
52867;DHT22;38739;53.324;6.862;2022-08-19T05:05:31;14.00;99.90
52867;DHT22;38739;53.324;6.862;2022-08-19T05:07:57;14.00;99.90
52867;DHT22;38739;53.324;6.862;2022-08-19T05:10:23;14.00;99.90
52867;DHT22;38739;53.324;6.862;2022-08-19T05:12:49;14.00;99.90
52867;DHT22;38739;53.324;6.862;2022-08-19T05:15:15;14.10;99.90
52867;DHT22;38739;53.324;6.862;2022-08-19T05:17:40;14.10;99.90
52867;DHT22;38739;53.324;6.862;2022-08-19T05:20:26;14.10;99.90
52867;DHT22;38739;53.324;6.862;2022-08-19T05:23:11;14.20;99.90
52867;DHT22;38739;53.324;6.862;2022-08-19T05:25:41;14.20;99.90
52867;DHT22;38739;53.324;6.862;2022-08-19T05:28:06;14.30;99.90
52867;DHT22;38739;53.324;6.862;2022-08-19T05:30:32;14.40;99.90
52867;DHT22;38739;53.324;6.862;2022-08-19T05:32:59;14.40;99.90
52867;DHT22;38739;53.324;6.862;2022-08-19T05:35:25;14.40;99.90
52867;DHT22;38739;53.324;6.862;2022-08-19T05:37:51;14.40;99.90
52867;DHT22;38739;53.324;6.862;2022-08-19T05:40:18;14.50;99.90
52867;DHT22;38739;53.324;6.862;2022-08-19T05:42:44;14.50;99.90
52867;DHT22;38739;53.324;6.862;2022-08-19T05:45:10;14.60;99.90
52867;DHT22;38739;53.324;6.862;2022-08-19T05:47:36;14.70;99.90
52867;DHT22;38739;53.324;6.862;2022-08-19T05:50:03;14.70;99.90
52867;DHT22;38739;53.324;6.862;2022-08-19T05:52:29;14.70;99.90
52867;DHT22;38739;53.324;6.862;2022-08-19T05:54:55;14.80;99.90
52867;DHT22;38739;53.324;6.862;2022-08-19T05:57:21;14.90;99.90
52867;DHT22;38739;53.324;6.862;2022-08-19T05:59:47;14.90;99.90
52867;DHT22;38739;53.324;6.862;2022-08-19T06:02:13;15.00;99.90
52867;DHT22;38739;53.324;6.862;2022-08-19T06:04:40;15.10;99.90
52867;DHT22;38739;53.324;6.862;2022-08-19T06:07:08;15.10;99.90
52867;DHT22;38739;53.324;6.862;2022-08-19T06:09:34;15.20;99.90
52867;DHT22;38739;53.324;6.862;2022-08-19T06:12:03;15.30;99.90
52867;DHT22;38739;53.324;6.862;2022-08-19T06:14:35;15.30;99.90
52867;DHT22;38739;53.324;6.862;2022-08-19T06:17:01;15.40;99.90
52867;DHT22;38739;53.324;6.862;2022-08-19T06:19:29;15.50;99.90
52867;DHT22;38739;53.324;6.862;2022-08-19T06:21:59;15.60;99.90
52867;DHT22;38739;53.324;6.862;2022-08-19T06:24:26;15.60;99.90
52867;DHT22;38739;53.324;6.862;2022-08-19T06:26:54;15.70;99.90
52867;DHT22;38739;53.324;6.862;2022-08-19T06:29:23;15.80;99.90
52867;DHT22;38739;53.324;6.862;2022-08-19T06:31:53;15.90;99.90
52867;DHT22;38739;53.324;6.862;2022-08-19T06:34:20;16.10;99.90
52867;DHT22;38739;53.324;6.862;2022-08-19T06:36:48;16.20;99.90
52867;DHT22;38739;53.324;6.862;2022-08-19T06:39:20;16.30;99.90
52867;DHT22;38739;53.324;6.862;2022-08-19T06:41:49;16.40;99.90
52867;DHT22;38739;53.324;6.862;2022-08-19T06:44:16;16.60;99.90
52867;DHT22;38739;53.324;6.862;2022-08-19T06:46:42;16.80;99.90
52867;DHT22;38739;53.324;6.862;2022-08-19T06:49:09;16.90;99.90
52867;DHT22;38739;53.324;6.862;2022-08-19T06:51:43;17.00;99.90
52867;DHT22;38739;53.324;6.862;2022-08-19T06:54:10;17.20;99.90
52867;DHT22;38739;53.324;6.862;2022-08-19T06:56:37;17.40;99.90
52867;DHT22;38739;53.324;6.862;2022-08-19T06:59:12;17.60;99.90
52867;DHT22;38739;53.324;6.862;2022-08-19T07:01:41;17.80;99.90
52867;DHT22;38739;53.324;6.862;2022-08-19T07:04:08;18.00;99.90
52867;DHT22;38739;53.324;6.862;2022-08-19T07:06:36;18.20;99.90
52867;DHT22;38739;53.324;6.862;2022-08-19T07:09:03;18.30;99.90
52867;DHT22;38739;53.324;6.862;2022-08-19T07:11:29;18.50;99.90
52867;DHT22;38739;53.324;6.862;2022-08-19T07:13:56;18.70;99.90
52867;DHT22;38739;53.324;6.862;2022-08-19T07:16:22;18.90;99.90
52867;DHT22;38739;53.324;6.862;2022-08-19T07:18:49;19.10;99.90
52867;DHT22;38739;53.324;6.862;2022-08-19T07:21:21;19.20;99.90
52867;DHT22;38739;53.324;6.862;2022-08-19T07:23:50;19.40;99.90
52867;DHT22;38739;53.324;6.862;2022-08-19T07:26:28;19.60;99.90
52867;DHT22;38739;53.324;6.862;2022-08-19T07:28:55;19.80;99.90
52867;DHT22;38739;53.324;6.862;2022-08-19T07:31:23;19.90;99.90
52867;DHT22;38739;53.324;6.862;2022-08-19T07:33:51;20.10;99.90
52867;DHT22;38739;53.324;6.862;2022-08-19T07:36:20;20.30;99.90
52867;DHT22;38739;53.324;6.862;2022-08-19T07:38:48;20.40;99.90
52867;DHT22;38739;53.324;6.862;2022-08-19T07:41:17;20.50;99.90
52867;DHT22;38739;53.324;6.862;2022-08-19T07:43:43;20.70;99.90
52867;DHT22;38739;53.324;6.862;2022-08-19T07:46:10;20.90;99.90
52867;DHT22;38739;53.324;6.862;2022-08-19T07:48:40;21.10;99.90
52867;DHT22;38739;53.324;6.862;2022-08-19T07:51:07;21.20;99.90
52867;DHT22;38739;53.324;6.862;2022-08-19T07:53:35;21.40;99.90
52867;DHT22;38739;53.324;6.862;2022-08-19T07:56:02;21.50;99.90
52867;DHT22;38739;53.324;6.862;2022-08-19T07:58:35;21.70;99.90
52867;DHT22;38739;53.324;6.862;2022-08-19T08:01:03;21.90;99.90
52867;DHT22;38739;53.324;6.862;2022-08-19T08:03:29;22.00;99.90
52867;DHT22;38739;53.324;6.862;2022-08-19T08:06:14;22.20;99.90
52867;DHT22;38739;53.324;6.862;2022-08-19T08:08:59;22.40;99.90
52867;DHT22;38739;53.324;6.862;2022-08-19T08:11:38;22.50;99.90
52867;DHT22;38739;53.324;6.862;2022-08-19T08:14:04;22.70;99.90
52867;DHT22;38739;53.324;6.862;2022-08-19T08:16:37;22.80;99.90
52867;DHT22;38739;53.324;6.862;2022-08-19T08:19:06;23.00;99.90
52867;DHT22;38739;53.324;6.862;2022-08-19T08:21:33;23.20;99.90
52867;DHT22;38739;53.324;6.862;2022-08-19T08:23:59;23.30;99.90
52867;DHT22;38739;53.324;6.862;2022-08-19T08:26:25;23.50;99.90
52867;DHT22;38739;53.324;6.862;2022-08-19T08:28:51;23.70;99.90
52867;DHT22;38739;53.324;6.862;2022-08-19T08:31:17;23.80;99.90
52867;DHT22;38739;53.324;6.862;2022-08-19T08:33:46;23.90;99.90
52867;DHT22;38739;53.324;6.862;2022-08-19T08:36:13;24.10;99.90
52867;DHT22;38739;53.324;6.862;2022-08-19T08:38:40;24.20;99.90
52867;DHT22;38739;53.324;6.862;2022-08-19T08:43:59;24.60;99.90
52867;DHT22;38739;53.324;6.862;2022-08-19T08:46:59;24.70;99.90
52867;DHT22;38739;53.324;6.862;2022-08-19T08:49:58;24.90;99.90
52867;DHT22;38739;53.324;6.862;2022-08-19T08:52:28;25.10;99.90
52867;DHT22;38739;53.324;6.862;2022-08-19T08:54:57;25.30;99.90
52867;DHT22;38739;53.324;6.862;2022-08-19T08:59:54;25.60;99.90
52867;DHT22;38739;53.324;6.862;2022-08-19T09:02:22;25.70;99.90
52867;DHT22;38739;53.324;6.862;2022-08-19T09:04:48;25.80;99.90
52867;DHT22;38739;53.324;6.862;2022-08-19T09:07:39;25.90;99.90
52867;DHT22;38739;53.324;6.862;2022-08-19T09:10:16;26.10;99.90
52867;DHT22;38739;53.324;6.862;2022-08-19T09:16:04;26.40;99.90
52867;DHT22;38739;53.324;6.862;2022-08-19T09:19:00;26.50;99.90
52867;DHT22;38739;53.324;6.862;2022-08-19T09:21:27;26.80;99.90
52867;DHT22;38739;53.324;6.862;2022-08-19T09:23:53;27.00;99.90
52867;DHT22;38739;53.324;6.862;2022-08-19T09:26:21;27.10;99.90
52867;DHT22;38739;53.324;6.862;2022-08-19T09:28:49;27.20;99.90
52867;DHT22;38739;53.324;6.862;2022-08-19T09:31:23;27.40;99.90
52867;DHT22;38739;53.324;6.862;2022-08-19T09:33:50;27.50;99.90
52867;DHT22;38739;53.324;6.862;2022-08-19T09:36:19;27.60;99.90
52867;DHT22;38739;53.324;6.862;2022-08-19T09:38:45;27.60;99.90
52867;DHT22;38739;53.324;6.862;2022-08-19T09:41:16;27.80;99.90
52867;DHT22;38739;53.324;6.862;2022-08-19T09:43:45;28.00;99.90
52867;DHT22;38739;53.324;6.862;2022-08-19T09:46:12;28.10;99.90
52867;DHT22;38739;53.324;6.862;2022-08-19T09:48:41;28.20;99.90
52867;DHT22;38739;53.324;6.862;2022-08-19T09:51:15;28.20;99.90
52867;DHT22;38739;53.324;6.862;2022-08-19T09:53:46;28.30;99.90
52867;DHT22;38739;53.324;6.862;2022-08-19T09:56:13;28.40;99.90
52867;DHT22;38739;53.324;6.862;2022-08-19T09:58:39;28.60;99.90
52867;DHT22;38739;53.324;6.862;2022-08-19T10:01:06;28.80;99.90
52867;DHT22;38739;53.324;6.862;2022-08-19T10:03:34;28.90;99.90
52867;DHT22;38739;53.324;6.862;2022-08-19T10:06:02;29.00;99.90
52867;DHT22;38739;53.324;6.862;2022-08-19T10:08:31;29.10;99.90
52867;DHT22;38739;53.324;6.862;2022-08-19T10:10:59;29.30;99.90
52867;DHT22;38739;53.324;6.862;2022-08-19T10:13:28;29.40;99.90
52867;DHT22;38739;53.324;6.862;2022-08-19T10:15:56;29.40;99.90
52867;DHT22;38739;53.324;6.862;2022-08-19T10:18:27;29.60;99.90
52867;DHT22;38739;53.324;6.862;2022-08-19T10:21:06;29.60;99.90
52867;DHT22;38739;53.324;6.862;2022-08-19T10:23:40;29.70;99.90
52867;DHT22;38739;53.324;6.862;2022-08-19T10:26:07;29.90;99.40
52867;DHT22;38739;53.324;6.862;2022-08-19T10:28:36;30.10;99.90
52867;DHT22;38739;53.324;6.862;2022-08-19T10:31:06;30.20;98.70
52867;DHT22;38739;53.324;6.862;2022-08-19T10:33:33;30.20;97.90
52867;DHT22;38739;53.324;6.862;2022-08-19T10:36:02;30.20;98.30
52867;DHT22;38739;53.324;6.862;2022-08-19T10:38:27;30.20;97.40
52867;DHT22;38739;53.324;6.862;2022-08-19T10:40:54;29.80;97.50
52867;DHT22;38739;53.324;6.862;2022-08-19T10:43:20;29.30;98.00
52867;DHT22;38739;53.324;6.862;2022-08-19T10:45:52;29.30;99.90
52867;DHT22;38739;53.324;6.862;2022-08-19T10:48:19;29.50;97.90
52867;DHT22;38739;53.324;6.862;2022-08-19T10:50:45;29.80;98.90
52867;DHT22;38739;53.324;6.862;2022-08-19T10:53:33;30.20;97.90
52867;DHT22;38739;53.324;6.862;2022-08-19T10:55:59;30.60;98.10
52867;DHT22;38739;53.324;6.862;2022-08-19T10:58:43;30.90;97.20
52867;DHT22;38739;53.324;6.862;2022-08-19T11:01:10;31.20;97.60
52867;DHT22;38739;53.324;6.862;2022-08-19T11:03:35;31.40;97.00
52867;DHT22;38739;53.324;6.862;2022-08-19T11:06:04;31.40;96.10
52867;DHT22;38739;53.324;6.862;2022-08-19T11:08:31;31.60;94.80
52867;DHT22;38739;53.324;6.862;2022-08-19T11:10:59;31.80;95.20
52867;DHT22;38739;53.324;6.862;2022-08-19T11:13:31;32.00;93.70
52867;DHT22;38739;53.324;6.862;2022-08-19T11:16:05;32.10;94.60
52867;DHT22;38739;53.324;6.862;2022-08-19T11:18:41;32.20;93.10
52867;DHT22;38739;53.324;6.862;2022-08-19T11:21:29;32.40;94.20
52867;DHT22;38739;53.324;6.862;2022-08-19T11:23:59;32.60;94.40
52867;DHT22;38739;53.324;6.862;2022-08-19T11:26:26;32.30;92.80
52867;DHT22;38739;53.324;6.862;2022-08-19T11:28:53;32.70;93.20
52867;DHT22;38739;53.324;6.862;2022-08-19T11:31:25;32.90;91.30
52867;DHT22;38739;53.324;6.862;2022-08-19T11:33:51;33.00;91.50
52867;DHT22;38739;53.324;6.862;2022-08-19T11:36:19;33.40;91.40
52867;DHT22;38739;53.324;6.862;2022-08-19T11:38:49;33.10;91.10
52867;DHT22;38739;53.324;6.862;2022-08-19T11:41:17;32.70;90.50
52867;DHT22;38739;53.324;6.862;2022-08-19T11:43:44;32.20;91.50
52867;DHT22;38739;53.324;6.862;2022-08-19T11:46:12;31.70;90.80
52867;DHT22;38739;53.324;6.862;2022-08-19T11:48:39;31.20;90.80
52867;DHT22;38739;53.324;6.862;2022-08-19T11:51:11;31.20;91.20
52867;DHT22;38739;53.324;6.862;2022-08-19T11:53:37;31.30;90.70
52867;DHT22;38739;53.324;6.862;2022-08-19T11:56:04;31.00;91.10
52867;DHT22;38739;53.324;6.862;2022-08-19T11:58:30;30.90;92.60
52867;DHT22;38739;53.324;6.862;2022-08-19T12:00:56;30.70;92.30
52867;DHT22;38739;53.324;6.862;2022-08-19T12:03:22;30.60;93.30
52867;DHT22;38739;53.324;6.862;2022-08-19T12:05:48;30.30;92.10
52867;DHT22;38739;53.324;6.862;2022-08-19T12:08:15;30.10;93.30
52867;DHT22;38739;53.324;6.862;2022-08-19T12:10:42;30.10;94.40
52867;DHT22;38739;53.324;6.862;2022-08-19T12:13:09;30.40;94.30
52867;DHT22;38739;53.324;6.862;2022-08-19T12:15:39;30.80;93.10
52867;DHT22;38739;53.324;6.862;2022-08-19T12:18:09;30.60;92.90
52867;DHT22;38739;53.324;6.862;2022-08-19T12:20:39;30.30;92.50
52867;DHT22;38739;53.324;6.862;2022-08-19T12:23:07;30.00;93.40
52867;DHT22;38739;53.324;6.862;2022-08-19T12:25:33;29.90;93.30
52867;DHT22;38739;53.324;6.862;2022-08-19T12:28:00;29.90;93.50
52867;DHT22;38739;53.324;6.862;2022-08-19T12:30:26;29.90;94.60
52867;DHT22;38739;53.324;6.862;2022-08-19T12:32:52;30.20;93.30
52867;DHT22;38739;53.324;6.862;2022-08-19T12:35:18;30.70;93.70
52867;DHT22;38739;53.324;6.862;2022-08-19T12:37:47;31.20;92.00
52867;DHT22;38739;53.324;6.862;2022-08-19T12:40:15;31.50;90.70
52867;DHT22;38739;53.324;6.862;2022-08-19T12:42:41;31.60;91.70
52867;DHT22;38739;53.324;6.862;2022-08-19T12:45:09;31.30;92.30
52867;DHT22;38739;53.324;6.862;2022-08-19T12:47:36;31.00;91.80
52867;DHT22;38739;53.324;6.862;2022-08-19T12:50:02;30.60;92.40
52867;DHT22;38739;53.324;6.862;2022-08-19T12:52:28;30.20;92.70
52867;DHT22;38739;53.324;6.862;2022-08-19T12:54:56;29.90;93.90
52867;DHT22;38739;53.324;6.862;2022-08-19T12:57:23;29.70;94.50
52867;DHT22;38739;53.324;6.862;2022-08-19T12:59:52;29.40;94.50
52867;DHT22;38739;53.324;6.862;2022-08-19T13:02:22;29.20;95.50
52867;DHT22;38739;53.324;6.862;2022-08-19T13:04:48;29.00;95.40
52867;DHT22;38739;53.324;6.862;2022-08-19T13:07:13;28.90;96.60
52867;DHT22;38739;53.324;6.862;2022-08-19T13:09:39;28.60;96.50
52867;DHT22;38739;53.324;6.862;2022-08-19T13:12:08;28.50;97.30
52867;DHT22;38739;53.324;6.862;2022-08-19T13:14:39;28.50;97.30
52867;DHT22;38739;53.324;6.862;2022-08-19T13:17:06;28.40;97.90
52867;DHT22;38739;53.324;6.862;2022-08-19T13:19:32;28.50;98.30
52867;DHT22;38739;53.324;6.862;2022-08-19T13:21:58;28.50;98.00
52867;DHT22;38739;53.324;6.862;2022-08-19T13:24:24;28.60;98.00
52867;DHT22;38739;53.324;6.862;2022-08-19T13:26:50;28.70;97.50
52867;DHT22;38739;53.324;6.862;2022-08-19T13:29:16;28.90;97.50
52867;DHT22;38739;53.324;6.862;2022-08-19T13:32:00;29.00;97.60
52867;DHT22;38739;53.324;6.862;2022-08-19T13:34:44;29.20;98.30
52867;DHT22;38739;53.324;6.862;2022-08-19T13:37:12;29.20;97.70
52867;DHT22;38739;53.324;6.862;2022-08-19T13:39:37;29.20;97.60
52867;DHT22;38739;53.324;6.862;2022-08-19T13:42:04;29.00;97.70
52867;DHT22;38739;53.324;6.862;2022-08-19T13:44:31;28.90;98.30
52867;DHT22;38739;53.324;6.862;2022-08-19T13:47:02;28.80;98.70
52867;DHT22;38739;53.324;6.862;2022-08-19T13:49:33;28.50;98.80
52867;DHT22;38739;53.324;6.862;2022-08-19T13:51:58;28.20;99.50
52867;DHT22;38739;53.324;6.862;2022-08-19T13:54:24;27.80;99.90
52867;DHT22;38739;53.324;6.862;2022-08-19T13:56:50;27.50;99.90
52867;DHT22;38739;53.324;6.862;2022-08-19T13:59:15;27.30;99.90
52867;DHT22;38739;53.324;6.862;2022-08-19T14:01:43;27.10;99.90
52867;DHT22;38739;53.324;6.862;2022-08-19T14:04:09;26.80;99.90
52867;DHT22;38739;53.324;6.862;2022-08-19T14:06:34;26.50;99.90
52867;DHT22;38739;53.324;6.862;2022-08-19T14:09:00;26.30;99.90
52867;DHT22;38739;53.324;6.862;2022-08-19T14:11:28;26.10;99.90
52867;DHT22;38739;53.324;6.862;2022-08-19T14:13:53;26.00;99.90
52867;DHT22;38739;53.324;6.862;2022-08-19T14:16:19;25.80;99.90
52867;DHT22;38739;53.324;6.862;2022-08-19T14:18:50;25.70;99.90
52867;DHT22;38739;53.324;6.862;2022-08-19T14:21:19;25.60;99.90
52867;DHT22;38739;53.324;6.862;2022-08-19T14:23:45;25.50;99.90
52867;DHT22;38739;53.324;6.862;2022-08-19T14:26:14;25.50;99.90
52867;DHT22;38739;53.324;6.862;2022-08-19T14:28:40;25.40;99.90
52867;DHT22;38739;53.324;6.862;2022-08-19T14:31:10;25.50;99.90
52867;DHT22;38739;53.324;6.862;2022-08-19T14:33:36;25.40;99.90
52867;DHT22;38739;53.324;6.862;2022-08-19T14:36:03;25.50;99.90
52867;DHT22;38739;53.324;6.862;2022-08-19T14:38:29;25.50;99.90
52867;DHT22;38739;53.324;6.862;2022-08-19T14:41:10;25.60;99.90
52867;DHT22;38739;53.324;6.862;2022-08-19T14:43:36;25.70;99.90
52867;DHT22;38739;53.324;6.862;2022-08-19T14:46:04;25.70;99.90
52867;DHT22;38739;53.324;6.862;2022-08-19T14:48:29;25.80;99.90
52867;DHT22;38739;53.324;6.862;2022-08-19T14:50:56;25.90;99.90
52867;DHT22;38739;53.324;6.862;2022-08-19T14:53:21;26.40;99.90
52867;DHT22;38739;53.324;6.862;2022-08-19T14:55:47;26.60;99.90
52867;DHT22;38739;53.324;6.862;2022-08-19T14:58:13;26.90;99.90
52867;DHT22;38739;53.324;6.862;2022-08-19T15:00:40;27.40;99.90
52867;DHT22;38739;53.324;6.862;2022-08-19T15:03:05;27.50;99.90
52867;DHT22;38739;53.324;6.862;2022-08-19T15:05:31;27.60;99.90
52867;DHT22;38739;53.324;6.862;2022-08-19T15:07:57;27.50;99.90
52867;DHT22;38739;53.324;6.862;2022-08-19T15:10:23;27.40;99.90
52867;DHT22;38739;53.324;6.862;2022-08-19T15:12:50;27.40;99.90
52867;DHT22;38739;53.324;6.862;2022-08-19T15:15:16;27.40;99.90
52867;DHT22;38739;53.324;6.862;2022-08-19T15:17:45;27.20;99.90
52867;DHT22;38739;53.324;6.862;2022-08-19T15:20:14;26.80;99.90
52867;DHT22;38739;53.324;6.862;2022-08-19T15:22:40;26.50;99.90
52867;DHT22;38739;53.324;6.862;2022-08-19T15:25:08;26.20;99.90
52867;DHT22;38739;53.324;6.862;2022-08-19T15:27:34;26.10;99.90
52867;DHT22;38739;53.324;6.862;2022-08-19T15:30:01;26.00;99.90
52867;DHT22;38739;53.324;6.862;2022-08-19T15:32:27;26.00;99.90
52867;DHT22;38739;53.324;6.862;2022-08-19T15:34:53;25.90;99.90
52867;DHT22;38739;53.324;6.862;2022-08-19T15:37:20;25.70;99.90
52867;DHT22;38739;53.324;6.862;2022-08-19T15:39:49;25.60;99.90
52867;DHT22;38739;53.324;6.862;2022-08-19T15:42:14;25.50;99.90
52867;DHT22;38739;53.324;6.862;2022-08-19T15:44:40;25.50;99.90
52867;DHT22;38739;53.324;6.862;2022-08-19T15:47:06;25.50;99.90